sensor_id;sensor_type;location;lat;lon;timestamp;pressure;altitude;pressure_sealevel;temperature;humidity
58072;BME280;60383;46.626;18.866;2024-02-23T00:01:26;99223.13;;;10.37;59.02
58072;BME280;60383;46.626;18.866;2024-02-23T00:03:51;99226.03;;;10.36;59.44
58072;BME280;60383;46.626;18.866;2024-02-23T00:06:17;99231.78;;;10.26;58.86
58072;BME280;60383;46.626;18.866;2024-02-23T00:08:43;99219.72;;;10.35;58.72
58072;BME280;60383;46.626;18.866;2024-02-23T00:11:09;99222.81;;;10.32;59.25
58072;BME280;60383;46.626;18.866;2024-02-23T00:13:35;99227.44;;;10.32;59.93
58072;BME280;60383;46.626;18.866;2024-02-23T00:16:00;99230.84;;;10.34;59.82
58072;BME280;60383;46.626;18.866;2024-02-23T00:18:26;99232.94;;;10.32;59.58
58072;BME280;60383;46.626;18.866;2024-02-23T00:20:51;99234.78;;;10.31;60.21
58072;BME280;60383;46.626;18.866;2024-02-23T00:23:16;99239.63;;;10.29;60.90
58072;BME280;60383;46.626;18.866;2024-02-23T00:25:42;99245.94;;;10.30;59.49
58072;BME280;60383;46.626;18.866;2024-02-23T00:28:07;99243.19;;;10.30;59.47
58072;BME280;60383;46.626;18.866;2024-02-23T00:30:33;99258.34;;;10.41;57.15
58072;BME280;60383;46.626;18.866;2024-02-23T00:32:59;99247.91;;;10.59;56.20
58072;BME280;60383;46.626;18.866;2024-02-23T00:35:24;99261.25;;;10.77;56.25
58072;BME280;60383;46.626;18.866;2024-02-23T00:37:49;99253.31;;;10.82;56.67
58072;BME280;60383;46.626;18.866;2024-02-23T00:40:15;99265.22;;;10.90;57.33
58072;BME280;60383;46.626;18.866;2024-02-23T00:42:41;99264.66;;;10.94;58.15
58072;BME280;60383;46.626;18.866;2024-02-23T00:45:07;99269.78;;;10.97;59.73
58072;BME280;60383;46.626;18.866;2024-02-23T00:47:32;99276.00;;;10.91;60.05
58072;BME280;60383;46.626;18.866;2024-02-23T00:49:58;99263.50;;;10.89;61.80
58072;BME280;60383;46.626;18.866;2024-02-23T00:52:23;99271.84;;;10.80;63.70
58072;BME280;60383;46.626;18.866;2024-02-23T00:54:48;99261.81;;;10.73;65.61
58072;BME280;60383;46.626;18.866;2024-02-23T00:57:14;99257.47;;;10.63;66.94
58072;BME280;60383;46.626;18.866;2024-02-23T00:59:41;99260.75;;;10.59;66.47
58072;BME280;60383;46.626;18.866;2024-02-23T01:02:06;99256.31;;;10.58;68.65
58072;BME280;60383;46.626;18.866;2024-02-23T01:04:31;99258.78;;;10.52;69.29
58072;BME280;60383;46.626;18.866;2024-02-23T01:06:58;99251.94;;;10.48;69.13
58072;BME280;60383;46.626;18.866;2024-02-23T01:09:23;99247.50;;;10.47;70.14
58072;BME280;60383;46.626;18.866;2024-02-23T01:11:49;99242.28;;;10.37;70.67
58072;BME280;60383;46.626;18.866;2024-02-23T01:14:15;99238.72;;;10.37;71.42
58072;BME280;60383;46.626;18.866;2024-02-23T01:16:40;99229.81;;;10.35;72.40
58072;BME280;60383;46.626;18.866;2024-02-23T01:19:06;99220.56;;;10.36;71.89
58072;BME280;60383;46.626;18.866;2024-02-23T01:21:31;99229.72;;;10.28;72.23
58072;BME280;60383;46.626;18.866;2024-02-23T01:23:56;99223.28;;;10.21;72.70
58072;BME280;60383;46.626;18.866;2024-02-23T01:26:23;99216.56;;;10.23;73.21
58072;BME280;60383;46.626;18.866;2024-02-23T01:28:48;99215.53;;;10.25;73.12
58072;BME280;60383;46.626;18.866;2024-02-23T01:31:14;99214.88;;;10.22;73.69
58072;BME280;60383;46.626;18.866;2024-02-23T01:33:39;99218.16;;;10.18;73.79
58072;BME280;60383;46.626;18.866;2024-02-23T01:36:05;99211.56;;;10.12;74.61
58072;BME280;60383;46.626;18.866;2024-02-23T01:38:31;99214.66;;;10.09;74.44
58072;BME280;60383;46.626;18.866;2024-02-23T01:40:58;99210.34;;;10.15;74.17
58072;BME280;60383;46.626;18.866;2024-02-23T01:43:24;99207.22;;;10.18;73.33
58072;BME280;60383;46.626;18.866;2024-02-23T01:45:49;99201.31;;;10.06;74.42
58072;BME280;60383;46.626;18.866;2024-02-23T01:48:15;99194.56;;;10.17;74.00
58072;BME280;60383;46.626;18.866;2024-02-23T01:50:42;99206.72;;;10.14;73.63
58072;BME280;60383;46.626;18.866;2024-02-23T01:53:10;99204.38;;;10.11;73.85
58072;BME280;60383;46.626;18.866;2024-02-23T01:55:40;99204.06;;;10.06;74.27
58072;BME280;60383;46.626;18.866;2024-02-23T01:58:07;99200.28;;;10.07;75.16
58072;BME280;60383;46.626;18.866;2024-02-23T02:00:34;99192.81;;;10.01;75.37
58072;BME280;60383;46.626;18.866;2024-02-23T02:03:00;99198.09;;;10.02;75.24
58072;BME280;60383;46.626;18.866;2024-02-23T02:05:25;99195.75;;;9.99;76.13
58072;BME280;60383;46.626;18.866;2024-02-23T02:07:51;99202.63;;;9.95;75.15
58072;BME280;60383;46.626;18.866;2024-02-23T02:10:19;99194.25;;;9.97;73.53
58072;BME280;60383;46.626;18.866;2024-02-23T02:12:45;99190.97;;;10.01;75.27
58072;BME280;60383;46.626;18.866;2024-02-23T02:15:10;99190.56;;;10.04;75.17
58072;BME280;60383;46.626;18.866;2024-02-23T02:17:36;99188.31;;;10.08;72.67
58072;BME280;60383;46.626;18.866;2024-02-23T02:20:03;99178.72;;;10.12;72.14
58072;BME280;60383;46.626;18.866;2024-02-23T02:22:34;99175.72;;;10.22;70.81
58072;BME280;60383;46.626;18.866;2024-02-23T02:25:00;99180.94;;;10.32;70.27
58072;BME280;60383;46.626;18.866;2024-02-23T02:27:25;99173.03;;;10.37;69.86
58072;BME280;60383;46.626;18.866;2024-02-23T02:29:50;99170.56;;;10.42;68.71
58072;BME280;60383;46.626;18.866;2024-02-23T02:32:16;99185.13;;;10.43;69.58
58072;BME280;60383;46.626;18.866;2024-02-23T02:34:42;99174.28;;;10.49;69.36
58072;BME280;60383;46.626;18.866;2024-02-23T02:37:07;99176.34;;;10.47;69.55
58072;BME280;60383;46.626;18.866;2024-02-23T02:39:33;99181.25;;;10.52;70.13
58072;BME280;60383;46.626;18.866;2024-02-23T02:41:59;99172.88;;;10.53;69.96
58072;BME280;60383;46.626;18.866;2024-02-23T02:44:24;99177.88;;;10.50;70.79
58072;BME280;60383;46.626;18.866;2024-02-23T02:46:51;99184.38;;;10.49;71.50
58072;BME280;60383;46.626;18.866;2024-02-23T02:49:17;99183.72;;;10.47;72.05
58072;BME280;60383;46.626;18.866;2024-02-23T02:51:42;99186.16;;;10.42;73.18
58072;BME280;60383;46.626;18.866;2024-02-23T02:54:08;99189.47;;;10.37;73.51
58072;BME280;60383;46.626;18.866;2024-02-23T02:56:33;99186.88;;;10.35;73.42
58072;BME280;60383;46.626;18.866;2024-02-23T02:58:59;99187.78;;;10.28;74.64
58072;BME280;60383;46.626;18.866;2024-02-23T03:01:24;99199.13;;;10.25;75.12
58072;BME280;60383;46.626;18.866;2024-02-23T03:03:50;99197.91;;;10.27;75.60
58072;BME280;60383;46.626;18.866;2024-02-23T03:06:15;99190.25;;;10.22;76.18
58072;BME280;60383;46.626;18.866;2024-02-23T03:08:43;99199.06;;;10.10;77.01
58072;BME280;60383;46.626;18.866;2024-02-23T03:11:09;99209.09;;;10.17;76.94
58072;BME280;60383;46.626;18.866;2024-02-23T03:13:35;99185.88;;;10.13;77.09
58072;BME280;60383;46.626;18.866;2024-02-23T03:16:00;99193.06;;;10.14;77.06
58072;BME280;60383;46.626;18.866;2024-02-23T03:18:26;99214.66;;;10.09;77.43
58072;BME280;60383;46.626;18.866;2024-02-23T03:20:53;99206.63;;;10.07;76.49
58072;BME280;60383;46.626;18.866;2024-02-23T03:23:18;99216.06;;;10.05;76.58
58072;BME280;60383;46.626;18.866;2024-02-23T03:25:44;99209.53;;;10.06;76.31
58072;BME280;60383;46.626;18.866;2024-02-23T03:28:09;99215.88;;;10.06;75.71
58072;BME280;60383;46.626;18.866;2024-02-23T03:30:34;99219.63;;;10.05;76.25
58072;BME280;60383;46.626;18.866;2024-02-23T03:33:00;99213.47;;;10.03;76.15
58072;BME280;60383;46.626;18.866;2024-02-23T03:35:25;99200.47;;;10.05;75.56
58072;BME280;60383;46.626;18.866;2024-02-23T03:37:51;99186.44;;;10.09;75.70
58072;BME280;60383;46.626;18.866;2024-02-23T03:40:16;99187.66;;;10.06;76.53
58072;BME280;60383;46.626;18.866;2024-02-23T03:42:44;99181.16;;;10.07;75.62
58072;BME280;60383;46.626;18.866;2024-02-23T03:45:09;99188.50;;;10.06;75.28
58072;BME280;60383;46.626;18.866;2024-02-23T03:47:35;99184.06;;;10.05;76.22
58072;BME280;60383;46.626;18.866;2024-02-23T03:50:00;99174.53;;;10.01;76.56
58072;BME280;60383;46.626;18.866;2024-02-23T03:52:25;99196.25;;;10.03;76.69
58072;BME280;60383;46.626;18.866;2024-02-23T03:54:51;99190.97;;;10.01;77.30
58072;BME280;60383;46.626;18.866;2024-02-23T03:57:17;99186.88;;;9.97;78.10
58072;BME280;60383;46.626;18.866;2024-02-23T03:59:54;99184.78;;;9.84;78.14
58072;BME280;60383;46.626;18.866;2024-02-23T04:02:20;99181.47;;;9.89;78.08
58072;BME280;60383;46.626;18.866;2024-02-23T04:04:46;99188.09;;;9.95;78.03
58072;BME280;60383;46.626;18.866;2024-02-23T04:07:11;99187.91;;;9.96;78.74
58072;BME280;60383;46.626;18.866;2024-02-23T04:09:37;99188.16;;;9.86;78.82
58072;BME280;60383;46.626;18.866;2024-02-23T04:12:02;99184.03;;;9.90;79.85
58072;BME280;60383;46.626;18.866;2024-02-23T04:14:28;99185.81;;;9.83;79.99
58072;BME280;60383;46.626;18.866;2024-02-23T04:16:53;99187.56;;;9.76;80.73
58072;BME280;60383;46.626;18.866;2024-02-23T04:19:19;99191.31;;;9.75;81.93
58072;BME280;60383;46.626;18.866;2024-02-23T04:21:44;99195.47;;;9.71;82.28
58072;BME280;60383;46.626;18.866;2024-02-23T04:24:10;99187.13;;;9.64;82.69
58072;BME280;60383;46.626;18.866;2024-02-23T04:26:35;99197.56;;;9.61;83.58
58072;BME280;60383;46.626;18.866;2024-02-23T04:29:01;99184.81;;;9.53;84.39
58072;BME280;60383;46.626;18.866;2024-02-23T04:31:26;99199.72;;;9.50;84.81
58072;BME280;60383;46.626;18.866;2024-02-23T04:33:52;99185.41;;;9.40;84.96
58072;BME280;60383;46.626;18.866;2024-02-23T04:36:20;99199.75;;;9.42;85.39
58072;BME280;60383;46.626;18.866;2024-02-23T04:38:48;99191.91;;;9.39;86.31
58072;BME280;60383;46.626;18.866;2024-02-23T04:41:14;99208.69;;;9.36;86.94
58072;BME280;60383;46.626;18.866;2024-02-23T04:43:39;99212.78;;;9.32;87.46
58072;BME280;60383;46.626;18.866;2024-02-23T04:46:05;99208.00;;;9.34;nan
58072;BME280;60383;46.626;18.866;2024-02-23T04:48:30;99201.84;;;9.32;88.60
58072;BME280;60383;46.626;18.866;2024-02-23T04:50:57;99208.91;;;9.26;89.16
58072;BME280;60383;46.626;18.866;2024-02-23T04:53:23;99215.09;;;9.20;89.35
58072;BME280;60383;46.626;18.866;2024-02-23T04:55:48;99209.28;;;9.15;90.04
58072;BME280;60383;46.626;18.866;2024-02-23T04:58:13;99206.53;;;9.15;89.91
58072;BME280;60383;46.626;18.866;2024-02-23T05:00:39;99209.47;;;9.13;90.45
58072;BME280;60383;46.626;18.866;2024-02-23T05:03:05;99211.53;;;9.03;90.51
58072;BME280;60383;46.626;18.866;2024-02-23T05:05:31;99219.59;;;9.04;90.52
58072;BME280;60383;46.626;18.866;2024-02-23T05:07:57;99211.88;;;9.08;90.80
58072;BME280;60383;46.626;18.866;2024-02-23T05:10:23;99212.41;;;9.03;90.24
58072;BME280;60383;46.626;18.866;2024-02-23T05:12:49;99213.25;;;9.04;90.79
58072;BME280;60383;46.626;18.866;2024-02-23T05:15:15;99213.97;;;8.98;90.90
58072;BME280;60383;46.626;18.866;2024-02-23T05:17:40;99209.53;;;8.97;91.13
58072;BME280;60383;46.626;18.866;2024-02-23T05:20:07;99212.75;;;9.00;91.07
58072;BME280;60383;46.626;18.866;2024-02-23T05:22:36;99213.47;;;8.94;91.36
58072;BME280;60383;46.626;18.866;2024-02-23T05:25:01;99213.31;;;8.95;91.14
58072;BME280;60383;46.626;18.866;2024-02-23T05:27:26;99220.34;;;8.82;91.59
58072;BME280;60383;46.626;18.866;2024-02-23T05:29:53;99221.69;;;8.86;91.96
58072;BME280;60383;46.626;18.866;2024-02-23T05:32:18;99223.72;;;8.92;90.91
58072;BME280;60383;46.626;18.866;2024-02-23T05:34:44;99226.63;;;8.90;91.36
58072;BME280;60383;46.626;18.866;2024-02-23T05:37:10;99224.75;;;8.91;91.55
58072;BME280;60383;46.626;18.866;2024-02-23T05:39:35;99233.66;;;8.85;92.25
58072;BME280;60383;46.626;18.866;2024-02-23T05:42:03;99240.94;;;8.92;91.81
58072;BME280;60383;46.626;18.866;2024-02-23T05:44:29;99246.09;;;8.87;91.84
58072;BME280;60383;46.626;18.866;2024-02-23T05:46:54;99250.47;;;8.97;91.22
58072;BME280;60383;46.626;18.866;2024-02-23T05:49:19;99241.97;;;8.91;91.42
58072;BME280;60383;46.626;18.866;2024-02-23T05:51:45;99252.03;;;8.99;91.21
58072;BME280;60383;46.626;18.866;2024-02-23T05:54:10;99258.53;;;8.98;90.84
58072;BME280;60383;46.626;18.866;2024-02-23T05:56:36;99251.84;;;9.01;91.18
58072;BME280;60383;46.626;18.866;2024-02-23T05:59:02;99261.41;;;8.97;91.05
58072;BME280;60383;46.626;18.866;2024-02-23T06:01:28;99257.00;;;8.95;91.19
58072;BME280;60383;46.626;18.866;2024-02-23T06:03:53;99274.22;;;8.96;90.68
58072;BME280;60383;46.626;18.866;2024-02-23T06:06:20;99279.47;;;9.06;90.40
58072;BME280;60383;46.626;18.866;2024-02-23T06:08:46;99281.19;;;9.07;90.22
58072;BME280;60383;46.626;18.866;2024-02-23T06:11:11;99287.34;;;9.09;89.70
58072;BME280;60383;46.626;18.866;2024-02-23T06:13:37;99289.19;;;9.08;90.04
58072;BME280;60383;46.626;18.866;2024-02-23T06:16:03;99290.91;;;9.09;90.15
58072;BME280;60383;46.626;18.866;2024-02-23T06:18:29;99294.13;;;9.13;89.93
58072;BME280;60383;46.626;18.866;2024-02-23T06:20:54;99296.88;;;9.13;90.37
58072;BME280;60383;46.626;18.866;2024-02-23T06:23:20;99301.00;;;9.09;91.04
58072;BME280;60383;46.626;18.866;2024-02-23T06:25:47;99296.03;;;9.13;91.05
58072;BME280;60383;46.626;18.866;2024-02-23T06:28:12;99299.28;;;9.08;90.96
58072;BME280;60383;46.626;18.866;2024-02-23T06:30:38;99302.66;;;9.10;90.81
58072;BME280;60383;46.626;18.866;2024-02-23T06:33:03;99304.38;;;9.11;90.89
58072;BME280;60383;46.626;18.866;2024-02-23T06:35:29;99312.56;;;9.11;90.84
58072;BME280;60383;46.626;18.866;2024-02-23T06:37:55;99308.50;;;9.07;91.10
58072;BME280;60383;46.626;18.866;2024-02-23T06:40:20;99311.22;;;9.07;91.16
58072;BME280;60383;46.626;18.866;2024-02-23T06:42:46;99313.47;;;9.03;91.68
58072;BME280;60383;46.626;18.866;2024-02-23T06:45:11;99317.72;;;9.06;91.43
58072;BME280;60383;46.626;18.866;2024-02-23T06:47:37;99315.81;;;9.15;91.15
58072;BME280;60383;46.626;18.866;2024-02-23T06:50:05;99333.41;;;9.12;91.38
58072;BME280;60383;46.626;18.866;2024-02-23T06:52:31;99319.44;;;9.07;92.49
58072;BME280;60383;46.626;18.866;2024-02-23T06:54:57;99314.47;;;9.02;92.49
58072;BME280;60383;46.626;18.866;2024-02-23T06:57:22;99317.38;;;9.09;91.52
58072;BME280;60383;46.626;18.866;2024-02-23T06:59:51;99319.44;;;9.07;92.22
58072;BME280;60383;46.626;18.866;2024-02-23T07:02:16;99326.22;;;9.11;91.71
58072;BME280;60383;46.626;18.866;2024-02-23T07:04:42;99322.50;;;9.04;92.30
58072;BME280;60383;46.626;18.866;2024-02-23T07:07:07;99325.56;;;9.09;92.33
58072;BME280;60383;46.626;18.866;2024-02-23T07:09:34;99326.03;;;9.21;91.41
58072;BME280;60383;46.626;18.866;2024-02-23T07:12:00;99324.50;;;9.18;91.78
58072;BME280;60383;46.626;18.866;2024-02-23T07:14:25;99323.28;;;9.21;91.60
58072;BME280;60383;46.626;18.866;2024-02-23T07:16:51;99324.19;;;9.05;92.11
58072;BME280;60383;46.626;18.866;2024-02-23T07:19:19;99319.34;;;9.23;91.04
58072;BME280;60383;46.626;18.866;2024-02-23T07:21:48;99322.97;;;9.16;90.70
58072;BME280;60383;46.626;18.866;2024-02-23T07:24:13;99310.13;;;9.24;90.77
58072;BME280;60383;46.626;18.866;2024-02-23T07:26:39;99314.38;;;9.35;89.62
58072;BME280;60383;46.626;18.866;2024-02-23T07:29:05;99318.97;;;9.43;89.71
58072;BME280;60383;46.626;18.866;2024-02-23T07:31:30;99315.88;;;9.46;89.96
58072;BME280;60383;46.626;18.866;2024-02-23T07:33:57;99321.22;;;9.39;89.96
58072;BME280;60383;46.626;18.866;2024-02-23T07:36:22;99317.22;;;9.50;89.78
58072;BME280;60383;46.626;18.866;2024-02-23T07:38:48;99326.28;;;9.51;89.71
58072;BME280;60383;46.626;18.866;2024-02-23T07:41:14;99320.31;;;9.47;89.70
58072;BME280;60383;46.626;18.866;2024-02-23T07:43:40;99324.72;;;9.56;88.41
58072;BME280;60383;46.626;18.866;2024-02-23T07:46:06;99318.88;;;9.59;87.82
58072;BME280;60383;46.626;18.866;2024-02-23T07:48:37;99317.88;;;9.52;88.07
58072;BME280;60383;46.626;18.866;2024-02-23T07:51:03;99327.88;;;9.68;87.83
58072;BME280;60383;46.626;18.866;2024-02-23T07:53:30;99324.31;;;9.68;87.86
58072;BME280;60383;46.626;18.866;2024-02-23T07:55:55;99318.81;;;9.76;86.63
58072;BME280;60383;46.626;18.866;2024-02-23T07:58:20;99322.03;;;9.80;86.69
58072;BME280;60383;46.626;18.866;2024-02-23T08:00:46;99324.78;;;9.80;87.15
58072;BME280;60383;46.626;18.866;2024-02-23T08:03:12;99324.72;;;9.88;85.99
58072;BME280;60383;46.626;18.866;2024-02-23T08:05:37;99328.44;;;9.95;85.88
58072;BME280;60383;46.626;18.866;2024-02-23T08:08:03;99327.88;;;10.00;86.09
58072;BME280;60383;46.626;18.866;2024-02-23T08:10:29;99327.34;;;10.04;85.14
58072;BME280;60383;46.626;18.866;2024-02-23T08:12:54;99329.47;;;9.94;86.65
58072;BME280;60383;46.626;18.866;2024-02-23T08:15:19;99329.84;;;10.14;85.31
58072;BME280;60383;46.626;18.866;2024-02-23T08:17:45;99338.97;;;10.06;86.29
58072;BME280;60383;46.626;18.866;2024-02-23T08:20:10;99340.94;;;10.21;86.00
58072;BME280;60383;46.626;18.866;2024-02-23T08:22:36;99340.75;;;10.22;86.34
58072;BME280;60383;46.626;18.866;2024-02-23T08:25:01;99335.75;;;10.26;85.63
58072;BME280;60383;46.626;18.866;2024-02-23T08:27:27;99340.63;;;10.16;86.33
58072;BME280;60383;46.626;18.866;2024-02-23T08:29:52;99342.88;;;10.12;86.60
58072;BME280;60383;46.626;18.866;2024-02-23T08:32:18;99345.31;;;9.99;88.24
58072;BME280;60383;46.626;18.866;2024-02-23T08:34:44;99333.50;;;10.30;86.30
58072;BME280;60383;46.626;18.866;2024-02-23T08:37:09;99340.44;;;10.17;86.07
58072;BME280;60383;46.626;18.866;2024-02-23T08:39:35;99342.97;;;10.19;86.32
58072;BME280;60383;46.626;18.866;2024-02-23T08:42:02;99347.25;;;10.21;87.00
58072;BME280;60383;46.626;18.866;2024-02-23T08:44:28;99341.72;;;10.30;85.62
58072;BME280;60383;46.626;18.866;2024-02-23T08:46:54;99342.72;;;10.37;85.11
58072;BME280;60383;46.626;18.866;2024-02-23T08:49:19;99342.00;;;10.35;85.95
58072;BME280;60383;46.626;18.866;2024-02-23T08:51:45;99356.16;;;10.47;85.30
58072;BME280;60383;46.626;18.866;2024-02-23T08:54:10;99342.97;;;10.50;85.47
58072;BME280;60383;46.626;18.866;2024-02-23T08:56:39;99346.38;;;10.52;85.69
58072;BME280;60383;46.626;18.866;2024-02-23T08:59:07;99347.00;;;10.54;85.67
58072;BME280;60383;46.626;18.866;2024-02-23T09:01:33;99345.34;;;10.53;85.35
58072;BME280;60383;46.626;18.866;2024-02-23T09:03:58;99341.72;;;10.53;85.01
58072;BME280;60383;46.626;18.866;2024-02-23T09:06:23;99343.94;;;10.58;84.22
58072;BME280;60383;46.626;18.866;2024-02-23T09:08:49;99335.22;;;10.54;84.21
58072;BME280;60383;46.626;18.866;2024-02-23T09:11:14;99341.88;;;10.60;85.13
58072;BME280;60383;46.626;18.866;2024-02-23T09:13:40;99343.09;;;10.57;84.57
58072;BME280;60383;46.626;18.866;2024-02-23T09:16:07;99350.94;;;10.75;84.09
58072;BME280;60383;46.626;18.866;2024-02-23T09:18:34;99353.03;;;10.73;83.41
58072;BME280;60383;46.626;18.866;2024-02-23T09:20:59;99350.41;;;10.80;83.40
58072;BME280;60383;46.626;18.866;2024-02-23T09:23:25;99352.78;;;10.83;83.92
58072;BME280;60383;46.626;18.866;2024-02-23T09:25:50;99350.13;;;10.90;83.66
58072;BME280;60383;46.626;18.866;2024-02-23T09:28:15;99348.44;;;10.89;83.78
58072;BME280;60383;46.626;18.866;2024-02-23T09:30:41;99345.59;;;10.82;84.60
58072;BME280;60383;46.626;18.866;2024-02-23T09:33:08;99350.41;;;10.80;84.68
58072;BME280;60383;46.626;18.866;2024-02-23T09:35:34;99339.72;;;10.85;84.39
58072;BME280;60383;46.626;18.866;2024-02-23T09:37:59;99340.25;;;11.03;82.96
58072;BME280;60383;46.626;18.866;2024-02-23T09:40:25;99330.13;;;11.19;82.65
58072;BME280;60383;46.626;18.866;2024-02-23T09:42:55;99331.34;;;11.01;81.56
58072;BME280;60383;46.626;18.866;2024-02-23T09:45:23;99327.69;;;11.24;81.56
58072;BME280;60383;46.626;18.866;2024-02-23T09:47:49;99323.81;;;11.33;79.58
58072;BME280;60383;46.626;18.866;2024-02-23T09:50:17;99327.97;;;11.44;78.75
58072;BME280;60383;46.626;18.866;2024-02-23T09:52:43;99334.31;;;11.45;77.89
58072;BME280;60383;46.626;18.866;2024-02-23T09:55:08;99331.34;;;11.61;77.90
58072;BME280;60383;46.626;18.866;2024-02-23T09:57:36;99326.44;;;11.57;77.88
58072;BME280;60383;46.626;18.866;2024-02-23T10:00:02;99321.16;;;11.70;76.30
58072;BME280;60383;46.626;18.866;2024-02-23T10:02:31;99326.44;;;11.57;76.52
58072;BME280;60383;46.626;18.866;2024-02-23T10:04:59;99327.09;;;11.74;76.28
58072;BME280;60383;46.626;18.866;2024-02-23T10:07:26;99332.53;;;11.89;75.45
58072;BME280;60383;46.626;18.866;2024-02-23T10:09:53;99328.56;;;11.91;74.59
58072;BME280;60383;46.626;18.866;2024-02-23T10:12:18;99336.13;;;11.89;74.32
58072;BME280;60383;46.626;18.866;2024-02-23T10:14:43;99340.22;;;11.78;75.32
58072;BME280;60383;46.626;18.866;2024-02-23T10:17:09;99343.81;;;11.64;76.87
58072;BME280;60383;46.626;18.866;2024-02-23T10:19:34;99338.19;;;11.65;75.98
58072;BME280;60383;46.626;18.866;2024-02-23T10:22:00;99338.25;;;11.72;76.43
58072;BME280;60383;46.626;18.866;2024-02-23T10:24:25;99334.19;;;11.68;76.07
58072;BME280;60383;46.626;18.866;2024-02-23T10:26:51;99332.38;;;11.60;76.41
58072;BME280;60383;46.626;18.866;2024-02-23T10:29:17;99335.91;;;11.39;76.46
58072;BME280;60383;46.626;18.866;2024-02-23T10:31:44;99335.56;;;11.42;75.33
58072;BME280;60383;46.626;18.866;2024-02-23T10:34:13;99333.66;;;11.43;75.12
58072;BME280;60383;46.626;18.866;2024-02-23T10:36:43;99331.38;;;11.46;75.68
58072;BME280;60383;46.626;18.866;2024-02-23T10:39:11;99336.03;;;11.46;75.95
58072;BME280;60383;46.626;18.866;2024-02-23T10:41:46;99336.47;;;11.34;76.20
58072;BME280;60383;46.626;18.866;2024-02-23T10:44:12;99330.91;;;11.43;76.41
58072;BME280;60383;46.626;18.866;2024-02-23T10:46:38;99329.59;;;11.39;75.42
58072;BME280;60383;46.626;18.866;2024-02-23T10:49:06;99332.63;;;11.29;75.66
58072;BME280;60383;46.626;18.866;2024-02-23T10:51:33;99334.41;;;11.37;75.08
58072;BME280;60383;46.626;18.866;2024-02-23T10:53:59;99330.22;;;11.41;74.85
58072;BME280;60383;46.626;18.866;2024-02-23T10:56:25;99324.94;;;11.39;75.41
58072;BME280;60383;46.626;18.866;2024-02-23T10:58:52;99325.44;;;11.28;75.77
58072;BME280;60383;46.626;18.866;2024-02-23T11:01:18;99322.22;;;11.39;75.43
58072;BME280;60383;46.626;18.866;2024-02-23T11:03:46;99309.94;;;11.35;76.28
58072;BME280;60383;46.626;18.866;2024-02-23T11:06:15;99316.81;;;11.31;75.90
58072;BME280;60383;46.626;18.866;2024-02-23T11:08:46;99306.69;;;11.46;76.46
58072;BME280;60383;46.626;18.866;2024-02-23T11:11:15;99305.66;;;11.47;75.62
58072;BME280;60383;46.626;18.866;2024-02-23T11:13:43;99298.56;;;11.53;74.91
58072;BME280;60383;46.626;18.866;2024-02-23T11:16:08;99295.72;;;11.46;75.44
58072;BME280;60383;46.626;18.866;2024-02-23T11:18:35;99293.19;;;11.45;75.94
58072;BME280;60383;46.626;18.866;2024-02-23T11:21:03;99290.63;;;11.43;75.92
58072;BME280;60383;46.626;18.866;2024-02-23T11:26:12;99295.38;;;11.86;74.25
58072;BME280;60383;46.626;18.866;2024-02-23T11:28:56;99310.13;;;11.85;74.88
58072;BME280;60383;46.626;18.866;2024-02-23T11:31:29;99308.63;;;11.82;74.74
58072;BME280;60383;46.626;18.866;2024-02-23T11:33:56;99299.81;;;11.87;74.51
58072;BME280;60383;46.626;18.866;2024-02-23T11:36:32;99303.97;;;11.83;74.82
58072;BME280;60383;46.626;18.866;2024-02-23T11:38:59;99308.78;;;11.96;74.96
58072;BME280;60383;46.626;18.866;2024-02-23T11:41:26;99302.63;;;11.94;75.21
58072;BME280;60383;46.626;18.866;2024-02-23T11:43:53;99305.38;;;11.94;74.92
58072;BME280;60383;46.626;18.866;2024-02-23T11:46:19;99309.06;;;12.01;74.54
58072;BME280;60383;46.626;18.866;2024-02-23T11:48:45;99312.94;;;11.92;75.28
58072;BME280;60383;46.626;18.866;2024-02-23T11:51:15;99310.78;;;12.02;75.02
58072;BME280;60383;46.626;18.866;2024-02-23T11:53:41;99312.69;;;11.87;75.33
58072;BME280;60383;46.626;18.866;2024-02-23T11:56:07;99300.56;;;11.96;75.54
58072;BME280;60383;46.626;18.866;2024-02-23T11:58:33;99301.81;;;11.78;75.72
58072;BME280;60383;46.626;18.866;2024-02-23T12:01:00;99301.59;;;11.95;75.89
58072;BME280;60383;46.626;18.866;2024-02-23T12:03:28;99294.81;;;11.91;75.45
58072;BME280;60383;46.626;18.866;2024-02-23T12:05:55;99299.00;;;11.72;75.02
58072;BME280;60383;46.626;18.866;2024-02-23T12:08:22;99290.88;;;11.63;75.58
58072;BME280;60383;46.626;18.866;2024-02-23T12:10:49;99287.53;;;11.83;74.15
58072;BME280;60383;46.626;18.866;2024-02-23T12:13:14;99288.88;;;11.72;74.21
58072;BME280;60383;46.626;18.866;2024-02-23T12:15:40;99278.16;;;11.77;74.61
58072;BME280;60383;46.626;18.866;2024-02-23T12:18:05;99283.16;;;11.89;74.71
58072;BME280;60383;46.626;18.866;2024-02-23T12:20:33;99276.66;;;11.75;74.24
58072;BME280;60383;46.626;18.866;2024-02-23T12:23:01;99278.06;;;12.01;74.26
58072;BME280;60383;46.626;18.866;2024-02-23T12:25:26;99278.50;;;12.04;73.33
58072;BME280;60383;46.626;18.866;2024-02-23T12:27:55;99287.84;;;12.10;71.96
58072;BME280;60383;46.626;18.866;2024-02-23T12:30:22;99282.19;;;12.11;71.13
58072;BME280;60383;46.626;18.866;2024-02-23T12:32:47;99286.09;;;12.02;72.19
58072;BME280;60383;46.626;18.866;2024-02-23T12:35:14;99278.19;;;12.14;71.17
58072;BME280;60383;46.626;18.866;2024-02-23T12:37:40;99276.28;;;12.14;71.68
58072;BME280;60383;46.626;18.866;2024-02-23T12:40:07;99276.16;;;12.23;70.58
58072;BME280;60383;46.626;18.866;2024-02-23T12:42:34;99271.19;;;12.11;71.04
58072;BME280;60383;46.626;18.866;2024-02-23T12:45:00;99279.56;;;12.03;71.39
58072;BME280;60383;46.626;18.866;2024-02-23T12:47:26;99274.59;;;11.77;73.38
58072;BME280;60383;46.626;18.866;2024-02-23T12:49:51;99282.31;;;12.03;71.67